Time;durP1;ratioP1;P1;durP2;ratioP2;P2;SDS_P1;SDS_P2;PMS_P1;PMS_P2;Temp;Humidity;BMP_temperature;BMP_pressure;BME280_temperature;BME280_humidity;BME280_pressure;Samples;Min_cycle;Max_cycle;Signal;HPM_P1;HPM_P2
2023/12/31 00:01:12;;;;;;;2.37;2.27;;;19.60;46.30;;;;;;4982082;28;20328;-74
2023/12/31 00:03:38;;;;;;;2.33;2.20;;;19.60;46.30;;;;;;4986690;28;20274;-74
2023/12/31 00:06:04;;;;;;;2.63;2.43;;;19.60;46.30;;;;;;4991592;28;20240;-74
2023/12/31 00:08:29;;;;;;;3.10;2.90;;;19.60;46.30;;;;;;4957819;28;20238;-72
2023/12/31 00:10:55;;;;;;;2.43;2.23;;;19.60;46.30;;;;;;4988159;28;20231;-70
2023/12/31 00:13:21;;;;;;;2.53;2.33;;;19.60;46.30;;;;;;4992190;28;20251;-70
2023/12/31 00:15:47;;;;;;;2.33;2.23;;;19.60;46.30;;;;;;4985348;28;20224;-69
2023/12/31 00:18:12;;;;;;;5.00;3.00;;;19.60;46.30;;;;;;4995042;28;20486;-72
2023/12/31 00:20:38;;;;;;;2.67;2.13;;;19.60;46.30;;;;;;4996557;28;20718;-70
2023/12/31 00:23:03;;;;;;;2.30;2.20;;;19.60;46.30;;;;;;4994452;28;20708;-68
2023/12/31 00:25:29;;;;;;;2.20;2.10;;;19.60;46.30;;;;;;4982832;28;20227;-68
2023/12/31 00:27:54;;;;;;;2.93;2.47;;;19.60;46.30;;;;;;4985507;28;20318;-69
2023/12/31 00:30:21;;;;;;;2.10;2.00;;;19.60;46.30;;;;;;4999480;28;20355;-73
2023/12/31 00:32:47;;;;;;;2.40;2.30;;;19.60;46.30;;;;;;4995403;28;20232;-68
2023/12/31 00:35:13;;;;;;;2.60;2.40;;;19.60;46.30;;;;;;4996639;28;20978;-70
2023/12/31 00:37:39;;;;;;;2.10;2.00;;;19.60;46.30;;;;;;4994295;28;20262;-67
2023/12/31 00:40:06;;;;;;;3.40;2.27;;;19.60;46.30;;;;;;4983093;28;20564;-71
2023/12/31 00:42:31;;;;;;;2.27;2.13;;;19.60;46.30;;;;;;4989773;28;20350;-67
2023/12/31 00:44:57;;;;;;;1.80;1.70;;;19.60;46.30;;;;;;4980944;28;20567;-71
2023/12/31 00:47:22;;;;;;;3.20;2.17;;;19.60;46.30;;;;;;4992411;28;20227;-67
2023/12/31 00:49:48;;;;;;;2.17;2.07;;;19.60;46.30;;;;;;4989867;28;20235;-76
2023/12/31 00:52:13;;;;;;;2.03;1.83;;;19.60;46.30;;;;;;4992841;28;20240;-77
2023/12/31 00:54:39;;;;;;;2.23;2.13;;;19.60;46.30;;;;;;4990842;28;20220;-78
2023/12/31 00:57:05;;;;;;;2.30;2.10;;;19.60;46.40;;;;;;4992424;28;20227;-76
2023/12/31 00:59:31;;;;;;;2.20;2.03;;;19.60;46.30;;;;;;4991379;28;20427;-77
2023/12/31 01:01:56;;;;;;;3.40;2.17;;;19.60;46.30;;;;;;4967945;28;20220;-78
2023/12/31 01:04:22;;;;;;;2.13;1.93;;;19.50;46.20;;;;;;4981601;28;20639;-78
2023/12/31 01:06:47;;;;;;;7.73;2.27;;;19.60;46.40;;;;;;4991339;28;22529;-78
2023/12/31 01:09:13;;;;;;;2.80;2.57;;;19.60;46.30;;;;;;4997885;28;20774;-77
2023/12/31 01:11:39;;;;;;;2.90;1.80;;;19.60;46.30;;;;;;4988746;28;20226;-77
2023/12/31 01:14:04;;;;;;;2.40;2.20;;;19.60;46.30;;;;;;4989346;28;20448;-78
2023/12/31 01:16:30;;;;;;;1.80;1.70;;;19.50;46.30;;;;;;4980084;28;20294;-76
2023/12/31 01:18:55;;;;;;;2.37;2.17;;;19.60;46.30;;;;;;4984352;28;20318;-77
2023/12/31 01:21:21;;;;;;;1.90;1.80;;;19.50;46.30;;;;;;4997808;28;20231;-73
2023/12/31 01:23:47;;;;;;;2.87;2.27;;;19.60;46.40;;;;;;4995322;28;20652;-73
2023/12/31 01:26:13;;;;;;;2.13;1.83;;;19.60;46.30;;;;;;4991217;28;20224;-72
2023/12/31 01:28:39;;;;;;;2.50;2.30;;;19.60;46.30;;;;;;4986322;28;20225;-73
2023/12/31 01:31:05;;;;;;;1.70;1.60;;;19.60;46.40;;;;;;4988202;28;20453;-74
2023/12/31 01:33:30;;;;;;;1.97;1.77;;;19.60;46.30;;;;;;4984095;28;20263;-73
2023/12/31 01:35:56;;;;;;;1.83;1.73;;;19.50;46.30;;;;;;4995073;28;20732;-73
2023/12/31 01:38:21;;;;;;;1.93;1.83;;;19.50;46.20;;;;;;4980072;28;20705;-73
2023/12/31 01:40:54;;;;;;;1.77;1.67;;;19.50;46.20;;;;;;4996480;28;20731;-73
2023/12/31 01:43:20;;;;;;;2.33;2.10;;;19.50;46.20;;;;;;4995080;28;20325;-74
2023/12/31 01:45:46;;;;;;;1.80;1.70;;;19.50;46.20;;;;;;4992394;28;20819;-73
2023/12/31 01:48:12;;;;;;;2.00;1.90;;;19.50;46.20;;;;;;4990094;28;20420;-72
2023/12/31 01:50:38;;;;;;;2.03;1.93;;;19.60;46.50;;;;;;4991888;28;20277;-73
2023/12/31 01:53:05;;;;;;;1.60;1.50;;;19.50;46.20;;;;;;4989583;28;20570;-73
2023/12/31 01:55:30;;;;;;;1.83;1.73;;;19.60;46.30;;;;;;4992475;28;20277;-73
2023/12/31 01:57:56;;;;;;;1.60;1.50;;;19.50;46.20;;;;;;4992426;28;20428;-73
2023/12/31 02:00:22;;;;;;;1.77;1.67;;;19.50;46.20;;;;;;4990046;28;20293;-78
2023/12/31 02:02:49;;;;;;;2.17;2.07;;;19.50;46.20;;;;;;5008558;28;20637;-78
2023/12/31 02:05:15;;;;;;;1.70;1.60;;;19.50;46.20;;;;;;4987901;28;20704;-72
2023/12/31 02:07:40;;;;;;;1.80;1.70;;;19.50;46.20;;;;;;4986705;28;20538;-77
2023/12/31 02:10:06;;;;;;;2.67;2.30;;;19.50;46.20;;;;;;4987060;28;20436;-75
2023/12/31 02:12:32;;;;;;;1.57;1.47;;;19.50;46.20;;;;;;4969612;28;20708;-77
2023/12/31 02:14:58;;;;;;;1.70;1.60;;;19.50;46.20;;;;;;4993347;28;20460;-75
2023/12/31 02:17:23;;;;;;;2.33;2.13;;;19.50;46.20;;;;;;4984900;28;20230;-73
2023/12/31 02:19:49;;;;;;;1.70;1.60;;;19.50;46.20;;;;;;4989184;28;20215;-74
2023/12/31 02:22:14;;;;;;;1.70;1.50;;;19.50;46.30;;;;;;4992674;28;20563;-78
2023/12/31 02:24:50;;;;;;;2.03;1.93;;;19.50;46.30;;;;;;4990528;28;20834;-76
2023/12/31 02:27:16;;;;;;;2.10;1.93;;;19.50;47.00;;;;;;4993460;28;21162;-78
2023/12/31 02:29:42;;;;;;;1.77;1.67;;;19.50;46.20;;;;;;4984825;28;20420;-74
2023/12/31 02:32:07;;;;;;;1.77;1.67;;;19.50;46.20;;;;;;4983340;28;20227;-77
2023/12/31 02:34:33;;;;;;;1.60;1.50;;;19.50;46.30;;;;;;4990195;28;20227;-74
2023/12/31 02:36:59;;;;;;;1.60;1.50;;;19.50;46.20;;;;;;4995441;28;20255;-74
2023/12/31 02:39:25;;;;;;;1.57;1.47;;;19.50;46.20;;;;;;4986682;28;20212;-69
2023/12/31 02:41:50;;;;;;;2.10;2.00;;;19.50;47.00;;;;;;4986773;28;20557;-70
2023/12/31 02:44:17;;;;;;;1.80;1.70;;;19.50;46.20;;;;;;4990666;28;20459;-72
2023/12/31 02:46:43;;;;;;;1.70;1.60;;;19.50;46.20;;;;;;4991894;28;20639;-67
2023/12/31 02:49:11;;;;;;;1.60;1.50;;;19.50;46.20;;;;;;4992098;28;20434;-68
2023/12/31 02:51:37;;;;;;;2.33;1.50;;;19.50;46.20;;;;;;4990604;28;20699;-74
2023/12/31 02:54:02;;;;;;;1.60;1.50;;;19.50;46.20;;;;;;4983299;28;20473;-74
2023/12/31 02:56:28;;;;;;;1.63;1.53;;;19.50;46.20;;;;;;4977763;28;20239;-72
2023/12/31 02:58:53;;;;;;;1.67;1.57;;;19.50;46.20;;;;;;4978626;28;20236;-73
2023/12/31 03:01:19;;;;;;;1.40;1.30;;;19.50;47.00;;;;;;4981566;28;20228;-73
2023/12/31 03:03:45;;;;;;;1.60;1.50;;;19.50;46.20;;;;;;4986302;28;20562;-74
2023/12/31 03:06:14;;;;;;;1.60;1.50;;;19.50;46.20;;;;;;4988765;28;20353;-74
2023/12/31 03:08:40;;;;;;;1.90;1.80;;;19.50;46.20;;;;;;4989005;28;25392;-74
2023/12/31 03:11:08;;;;;;;1.60;1.50;;;19.50;46.30;;;;;;4993633;28;20849;-74
2023/12/31 03:13:34;;;;;;;2.00;1.90;;;19.50;46.20;;;;;;4990236;28;20603;-74
2023/12/31 03:16:08;;;;;;;1.30;1.20;;;19.50;46.20;;;;;;4990380;28;20480;-74
2023/12/31 03:18:34;;;;;;;1.60;1.50;;;19.50;46.20;;;;;;4986259;28;20306;-74
2023/12/31 03:20:59;;;;;;;1.70;1.60;;;19.50;46.20;;;;;;4975148;28;20444;-72
2023/12/31 03:23:25;;;;;;;1.67;1.57;;;19.50;46.20;;;;;;4976508;28;20285;-73
2023/12/31 03:25:50;;;;;;;2.70;1.60;;;19.50;46.20;;;;;;4988558;28;20231;-72
2023/12/31 03:28:16;;;;;;;1.70;1.60;;;19.50;46.20;;;;;;4995297;28;20306;-73
2023/12/31 03:30:42;;;;;;;2.40;1.70;;;19.50;46.20;;;;;;4989817;28;20227;-73
2023/12/31 03:33:07;;;;;;;1.50;1.40;;;19.50;46.20;;;;;;4990183;28;20784;-73
2023/12/31 03:35:33;;;;;;;1.77;1.67;;;19.50;46.20;;;;;;4992870;28;20262;-73
2023/12/31 03:37:58;;;;;;;1.67;1.50;;;19.50;46.20;;;;;;4994800;28;20707;-72
2023/12/31 03:40:24;;;;;;;1.93;1.83;;;19.50;46.20;;;;;;4974997;28;20243;-77
2023/12/31 03:42:50;;;;;;;1.60;1.50;;;19.50;46.20;;;;;;4981730;28;20301;-77
2023/12/31 03:45:15;;;;;;;1.50;1.40;;;19.50;46.20;;;;;;4992703;28;20289;-77
2023/12/31 03:47:41;;;;;;;1.67;1.57;;;19.50;46.20;;;;;;4992089;28;20639;-74
2023/12/31 03:50:07;;;;;;;1.70;1.60;;;19.50;46.20;;;;;;4994343;28;20725;-76
2023/12/31 03:52:33;;;;;;;1.40;1.30;;;19.50;46.20;;;;;;4985158;28;20730;-77
2023/12/31 03:54:58;;;;;;;1.30;1.20;;;19.50;46.20;;;;;;4990817;28;20444;-77
2023/12/31 03:57:24;;;;;;;1.50;1.40;;;19.50;46.20;;;;;;4990415;28;20702;-78
2023/12/31 03:59:50;;;;;;;1.33;1.23;;;19.50;46.20;;;;;;4995973;28;20227;-68
2023/12/31 04:02:17;;;;;;;1.50;1.40;;;19.50;46.20;;;;;;4990216;28;20223;-69
2023/12/31 04:04:42;;;;;;;1.50;1.40;;;19.50;46.20;;;;;;4992120;28;20451;-67
2023/12/31 04:07:09;;;;;;;1.97;1.43;;;19.50;46.20;;;;;;4996503;28;20455;-69
2023/12/31 04:09:35;;;;;;;1.47;1.37;;;19.50;46.20;;;;;;4982504;28;20552;-67
2023/12/31 04:12:01;;;;;;;1.53;1.43;;;19.50;46.20;;;;;;4980082;28;20454;-69
2023/12/31 04:14:27;;;;;;;1.40;1.30;;;19.50;46.10;;;;;;4992974;28;20216;-69
2023/12/31 04:16:52;;;;;;;1.27;1.17;;;19.50;46.20;;;;;;4996827;28;20443;-67
2023/12/31 04:19:18;;;;;;;1.60;1.50;;;19.50;46.20;;;;;;4999312;28;20768;-68
2023/12/31 04:21:43;;;;;;;1.60;1.50;;;19.50;46.20;;;;;;4997268;28;20310;-69
2023/12/31 04:24:09;;;;;;;1.47;1.37;;;19.50;46.10;;;;;;4997501;28;20306;-72
2023/12/31 04:26:35;;;;;;;1.40;1.30;;;19.50;46.20;;;;;;4986754;28;20211;-68
2023/12/31 04:29:00;;;;;;;1.50;1.40;;;19.50;46.20;;;;;;4993747;28;20483;-71
2023/12/31 04:31:26;;;;;;;1.40;1.30;;;19.50;46.10;;;;;;4988685;28;20226;-67
2023/12/31 04:33:51;;;;;;;1.30;1.20;;;19.50;46.10;;;;;;4996552;28;20224;-67
2023/12/31 04:36:17;;;;;;;1.40;1.30;;;19.50;46.10;;;;;;4998986;28;20235;-70
2023/12/31 04:38:43;;;;;;;1.47;1.37;;;19.50;46.10;;;;;;4986904;28;20224;-67
2023/12/31 04:41:19;;;;;;;1.53;1.43;;;19.50;46.10;;;;;;4987677;28;20235;-69
2023/12/31 04:43:44;;;;;;;1.23;1.13;;;19.50;46.10;;;;;;4991743;28;20279;-69
2023/12/31 04:46:10;;;;;;;1.70;1.40;;;19.50;46.10;;;;;;4975642;28;20449;-68
2023/12/31 04:48:37;;;;;;;1.43;1.33;;;19.50;46.10;;;;;;4982128;28;20724;-68
2023/12/31 04:51:03;;;;;;;1.47;1.37;;;19.50;46.10;;;;;;4996720;28;20228;-78
2023/12/31 04:53:28;;;;;;;1.30;1.20;;;19.50;46.00;;;;;;4990138;28;20863;-76
2023/12/31 04:55:54;;;;;;;1.77;1.67;;;19.60;46.10;;;;;;4996443;28;20227;-77
2023/12/31 04:58:19;;;;;;;1.57;1.47;;;19.60;46.10;;;;;;4984553;28;20277;-75
2023/12/31 05:00:45;;;;;;;1.40;1.30;;;19.50;46.00;;;;;;4991791;28;20750;-78
2023/12/31 05:03:11;;;;;;;1.80;1.70;;;19.60;46.10;;;;;;4991777;28;20792;-78
2023/12/31 05:05:36;;;;;;;1.40;1.30;;;19.60;46.00;;;;;;4986748;28;20440;-78
2023/12/31 05:08:02;;;;;;;1.37;1.27;;;19.60;46.00;;;;;;4992122;28;20227;-76
2023/12/31 05:10:27;;;;;;;1.33;1.23;;;19.60;46.00;;;;;;4982809;28;20220;-77
2023/12/31 05:12:53;;;;;;;1.03;1.03;;;19.60;46.00;;;;;;4989498;28;20359;-76
2023/12/31 05:15:18;;;;;;;1.97;1.20;;;19.60;46.00;;;;;;4995129;28;20690;-75
2023/12/31 05:17:44;;;;;;;1.50;1.40;;;19.60;46.00;;;;;;4994982;28;20234;-78
2023/12/31 05:20:10;;;;;;;1.30;1.20;;;19.60;45.90;;;;;;4992689;28;20227;-78
2023/12/31 05:22:35;;;;;;;1.40;1.30;;;19.60;45.90;;;;;;4992294;28;20255;-78
2023/12/31 05:25:01;;;;;;;1.50;1.40;;;19.60;45.90;;;;;;4976837;28;20311;-75
2023/12/31 05:27:26;;;;;;;1.27;1.17;;;19.60;45.90;;;;;;4988295;28;20216;-78
2023/12/31 05:29:52;;;;;;;1.60;1.50;;;19.70;46.00;;;;;;4995713;28;20223;-78
2023/12/31 05:32:17;;;;;;;1.53;1.43;;;19.60;45.90;;;;;;4978145;28;20238;-78
2023/12/31 05:34:43;;;;;;;1.30;1.20;;;19.60;45.80;;;;;;4985189;28;20250;-77
2023/12/31 05:37:08;;;;;;;1.10;1.00;;;19.70;45.90;;;;;;4988884;28;20224;-78
2023/12/31 05:39:34;;;;;;;1.30;1.20;;;19.70;45.90;;;;;;4986772;28;20239;-75
2023/12/31 05:41:59;;;;;;;1.47;1.37;;;19.70;45.90;;;;;;4993361;28;20219;-75
2023/12/31 05:44:25;;;;;;;1.60;1.50;;;19.70;45.80;;;;;;4987922;28;20223;-74
2023/12/31 05:46:50;;;;;;;1.27;1.17;;;19.60;45.80;;;;;;4984654;28;20223;-70
2023/12/31 05:49:16;;;;;;;1.30;1.20;;;19.70;45.80;;;;;;4976476;28;20676;-74
2023/12/31 05:51:41;;;;;;;1.57;1.47;;;19.70;45.90;;;;;;4995923;28;20219;-79
2023/12/31 05:54:07;;;;;;;1.33;1.23;;;19.70;45.80;;;;;;4993219;28;20236;-76
2023/12/31 05:56:32;;;;;;;1.50;1.30;;;19.70;45.80;;;;;;4989780;28;20224;-76
2023/12/31 05:58:58;;;;;;;1.20;1.10;;;19.70;45.80;;;;;;4994266;28;20228;-75
2023/12/31 06:01:23;;;;;;;1.20;1.10;;;19.70;45.80;;;;;;4994884;28;20227;-73
2023/12/31 06:03:49;;;;;;;1.30;1.20;;;19.70;45.80;;;;;;4988775;28;20928;-72
2023/12/31 06:06:16;;;;;;;1.20;1.10;;;19.70;45.80;;;;;;4992752;28;20235;-73
2023/12/31 06:08:42;;;;;;;1.10;1.00;;;19.70;45.80;;;;;;4987699;28;20235;-73
2023/12/31 06:11:09;;;;;;;1.40;1.30;;;19.70;45.80;;;;;;4985856;28;20523;-73
2023/12/31 06:13:34;;;;;;;1.40;1.30;;;19.70;45.80;;;;;;4983373;28;20603;-72
2023/12/31 06:16:00;;;;;;;1.33;1.23;;;19.70;45.80;;;;;;4994610;28;21211;-73
2023/12/31 06:18:26;;;;;;;1.20;1.10;;;19.70;45.80;;;;;;4972933;28;20235;-73
2023/12/31 06:20:51;;;;;;;1.40;1.30;;;19.70;45.80;;;;;;4982967;28;20443;-73
2023/12/31 06:23:17;;;;;;;1.30;1.20;;;19.70;45.70;;;;;;4993620;28;20358;-73
2023/12/31 06:25:42;;;;;;;1.27;1.17;;;19.70;45.70;;;;;;4988084;28;20300;-72
2023/12/31 06:28:08;;;;;;;1.40;1.30;;;19.70;45.70;;;;;;4976804;28;20264;-73
2023/12/31 06:30:34;;;;;;;1.40;1.30;;;19.70;45.70;;;;;;4979499;28;20342;-73
2023/12/31 06:32:59;;;;;;;1.47;1.37;;;19.70;45.70;;;;;;4988751;28;20283;-73
2023/12/31 06:35:25;;;;;;;1.50;1.40;;;19.70;45.70;;;;;;4991370;28;20228;-73
2023/12/31 06:37:50;;;;;;;1.07;1.00;;;19.70;45.70;;;;;;4989933;28;20285;-72
2023/12/31 06:40:16;;;;;;;1.23;1.10;;;19.70;45.70;;;;;;4990338;28;20349;-73
2023/12/31 06:42:42;;;;;;;1.20;1.10;;;19.70;45.60;;;;;;4967969;28;20240;-73
2023/12/31 06:45:08;;;;;;;1.17;1.07;;;19.70;45.90;;;;;;4989361;28;20668;-73
2023/12/31 06:47:33;;;;;;;1.20;1.10;;;19.70;45.60;;;;;;4991334;28;21253;-73
2023/12/31 06:49:59;;;;;;;1.40;1.30;;;19.70;45.60;;;;;;4995502;28;20440;-71
2023/12/31 06:52:24;;;;;;;1.20;1.10;;;19.70;45.60;;;;;;4991603;28;20223;-73
2023/12/31 06:54:50;;;;;;;1.27;1.17;;;19.70;45.70;;;;;;4989765;28;20278;-71
2023/12/31 06:57:15;;;;;;;1.50;1.40;;;19.70;45.60;;;;;;4991275;28;20873;-72
2023/12/31 06:59:41;;;;;;;1.77;1.40;;;19.70;45.60;;;;;;4995050;28;20223;-72
2023/12/31 07:02:06;;;;;;;1.10;1.00;;;19.70;45.60;;;;;;4991477;28;20208;-73
2023/12/31 07:04:32;;;;;;;1.40;1.23;;;19.70;45.60;;;;;;4983656;28;20219;-73
2023/12/31 07:06:58;;;;;;;1.40;1.30;;;19.70;45.60;;;;;;4977138;28;20705;-72
2023/12/31 07:09:24;;;;;;;1.30;1.20;;;19.70;45.50;;;;;;4996585;28;20220;-72
2023/12/31 07:11:49;;;;;;;1.20;1.10;;;19.70;45.60;;;;;;4993443;28;20442;-76
2023/12/31 07:14:15;;;;;;;1.20;1.10;;;19.70;45.50;;;;;;4993817;28;20644;-76
2023/12/31 07:16:40;;;;;;;1.40;1.30;;;19.70;45.50;;;;;;4991503;28;20668;-76
2023/12/31 07:19:07;;;;;;;1.33;1.23;;;19.70;45.50;;;;;;4992935;28;20579;-76
2023/12/31 07:21:32;;;;;;;1.10;1.00;;;19.70;45.50;;;;;;4992937;28;20220;-69
2023/12/31 07:23:58;;;;;;;0.93;0.90;;;19.80;45.60;;;;;;4994093;28;20438;-69
2023/12/31 07:26:28;;;;;;;1.13;1.03;;;19.70;45.50;;;;;;4994745;28;20223;-67
2023/12/31 07:28:54;;;;;;;2.03;1.20;;;19.80;45.60;;;;;;4978850;28;20580;-68
2023/12/31 07:31:20;;;;;;;1.23;1.13;;;19.70;45.50;;;;;;4988709;28;20811;-71
2023/12/31 07:33:47;;;;;;;1.30;1.20;;;19.70;45.50;;;;;;4991063;28;20465;-68
2023/12/31 07:36:12;;;;;;;1.30;1.20;;;19.70;45.50;;;;;;4979667;28;21384;-66
2023/12/31 07:38:38;;;;;;;1.30;1.20;;;19.80;45.60;;;;;;4974833;28;20465;-66
2023/12/31 07:41:05;;;;;;;1.00;1.00;;;19.70;45.50;;;;;;4985489;28;21110;-66
2023/12/31 07:43:31;;;;;;;1.20;1.10;;;19.80;45.60;;;;;;4984839;28;20462;-68
2023/12/31 07:45:56;;;;;;;1.30;1.20;;;19.80;45.60;;;;;;4978137;28;21536;-67
2023/12/31 07:48:22;;;;;;;1.23;1.13;;;19.80;45.50;;;;;;4986143;28;20474;-68
2023/12/31 07:50:48;;;;;;;1.10;1.00;;;19.70;45.50;;;;;;4968782;28;20318;-67
2023/12/31 07:53:14;;;;;;;1.40;1.30;;;19.70;45.40;;;;;;4979755;28;20240;-69
2023/12/31 07:55:39;;;;;;;1.30;1.20;;;19.70;45.40;;;;;;4976397;28;20483;-68
2023/12/31 07:58:05;;;;;;;1.10;1.00;;;19.80;45.20;;;;;;4990023;28;20264;-71
2023/12/31 08:00:30;;;;;;;1.20;1.10;;;19.80;45.50;;;;;;4982994;28;20288;-67
2023/12/31 08:02:56;;;;;;;2.07;1.03;;;19.80;45.50;;;;;;4981672;28;20227;-69
2023/12/31 08:05:22;;;;;;;1.03;0.93;;;19.70;45.40;;;;;;4988975;28;20232;-68
2023/12/31 08:07:47;;;;;;;1.60;1.50;;;19.70;45.30;;;;;;4987626;28;20231;-70
2023/12/31 08:10:13;;;;;;;2.43;1.10;;;19.70;45.30;;;;;;4987868;28;20223;-69
2023/12/31 08:12:38;;;;;;;1.10;1.00;;;19.70;45.40;;;;;;4987203;28;20275;-68
2023/12/31 08:15:05;;;;;;;1.20;1.10;;;19.80;45.50;;;;;;4983907;28;20223;-68
2023/12/31 08:17:31;;;;;;;3.33;1.00;;;19.70;45.40;;;;;;4967775;28;20232;-69
2023/12/31 08:19:57;;;;;;;1.10;1.00;;;19.80;45.50;;;;;;4989656;28;20451;-75
2023/12/31 08:22:23;;;;;;;1.20;1.10;;;19.80;45.50;;;;;;4991960;28;20446;-77
2023/12/31 08:24:48;;;;;;;1.20;1.10;;;19.80;45.50;;;;;;4981747;28;20573;-77
2023/12/31 08:27:14;;;;;;;1.00;0.90;;;19.80;45.50;;;;;;4981958;28;20287;-77
2023/12/31 08:29:42;;;;;;;1.20;1.10;;;19.80;45.40;;;;;;4981338;28;20231;-77
2023/12/31 08:32:08;;;;;;;1.30;1.20;;;19.80;45.50;;;;;;4994957;28;20216;-77
2023/12/31 08:34:34;;;;;;;1.03;1.00;;;19.80;45.40;;;;;;4996196;28;20484;-76
2023/12/31 08:37:00;;;;;;;1.20;1.10;;;19.80;45.40;;;;;;4968212;28;20429;-74
2023/12/31 08:39:25;;;;;;;1.20;1.10;;;19.80;45.30;;;;;;4997050;28;20228;-75
2023/12/31 08:41:51;;;;;;;1.20;1.10;;;19.80;45.40;;;;;;4971228;28;20219;-70
2023/12/31 08:44:17;;;;;;;1.13;1.03;;;19.80;45.40;;;;;;4973262;28;20761;-74
2023/12/31 08:46:42;;;;;;;1.10;1.00;;;19.80;45.50;;;;;;4992334;28;20279;-79
2023/12/31 08:49:08;;;;;;;1.20;1.10;;;19.80;45.50;;;;;;4990789;28;20231;-75
2023/12/31 08:51:33;;;;;;;1.97;1.00;;;19.80;45.50;;;;;;4995425;28;20239;-78
2023/12/31 08:53:59;;;;;;;1.23;1.13;;;19.80;45.50;;;;;;4972066;28;20232;-79
2023/12/31 08:56:25;;;;;;;2.73;1.20;;;19.70;45.40;;;;;;4970111;28;20683;-74
2023/12/31 08:58:50;;;;;;;1.20;1.10;;;19.80;45.50;;;;;;4987734;28;20232;-76
2023/12/31 09:01:19;;;;;;;1.47;1.13;;;19.80;45.50;;;;;;4963908;28;20234;-73
2023/12/31 09:03:45;;;;;;;1.10;1.00;;;19.80;45.50;;;;;;4968622;28;20548;-78
2023/12/31 09:06:10;;;;;;;1.40;1.30;;;19.80;45.50;;;;;;4985043;28;20490;-78
2023/12/31 09:08:36;;;;;;;1.20;1.10;;;19.80;45.50;;;;;;4976617;28;20243;-74
2023/12/31 09:11:02;;;;;;;1.10;1.00;;;19.70;45.40;;;;;;4989825;28;20224;-78
2023/12/31 09:13:27;;;;;;;1.27;1.17;;;19.80;45.50;;;;;;4991771;28;20247;-76
2023/12/31 09:15:55;;;;;;;1.10;1.00;;;19.70;45.70;;;;;;4977962;28;20219;-78
2023/12/31 09:18:21;;;;;;;1.10;1.10;;;19.70;45.40;;;;;;4976363;28;20589;-72
2023/12/31 09:20:47;;;;;;;1.23;1.13;;;19.70;45.40;;;;;;4963454;28;20469;-76
2023/12/31 09:23:12;;;;;;;1.30;1.20;;;19.80;45.50;;;;;;4981812;28;20464;-76
2023/12/31 09:25:38;;;;;;;1.30;1.20;;;19.80;45.50;;;;;;4980408;28;20334;-76
2023/12/31 09:28:04;;;;;;;1.30;1.20;;;19.70;45.50;;;;;;4992804;28;20253;-75
2023/12/31 09:30:30;;;;;;;1.20;1.10;;;19.70;45.40;;;;;;4972129;28;20696;-70
2023/12/31 09:32:58;;;;;;;1.50;1.40;;;19.70;45.40;;;;;;4969356;28;20432;-69
2023/12/31 09:35:23;;;;;;;1.10;1.00;;;19.70;45.40;;;;;;4983875;28;20227;-69
2023/12/31 09:37:49;;;;;;;1.67;1.57;;;19.70;45.40;;;;;;4991759;28;21006;-68
2023/12/31 09:40:16;;;;;;;1.20;1.10;;;19.80;45.60;;;;;;4978921;28;20221;-74
2023/12/31 09:42:49;;;;;;;2.40;1.00;;;19.70;45.40;;;;;;4981424;28;20575;-71
2023/12/31 09:45:20;;;;;;;1.07;0.97;;;19.70;45.50;;;;;;4984544;28;20547;-73
2023/12/31 09:47:48;;;;;;;1.10;1.00;;;19.70;45.50;;;;;;4988189;28;20516;-73
2023/12/31 09:50:14;;;;;;;1.20;1.10;;;19.70;45.60;;;;;;4990984;28;20460;-73
2023/12/31 09:52:42;;;;;;;1.30;1.20;;;19.70;45.50;;;;;;4987271;28;20541;-72
2023/12/31 09:55:08;;;;;;;1.43;1.30;;;19.70;45.60;;;;;;4974286;28;20592;-73
2023/12/31 09:57:34;;;;;;;1.40;1.20;;;19.70;45.50;;;;;;4989896;28;20806;-73
2023/12/31 10:00:06;;;;;;;1.70;1.53;;;19.70;45.50;;;;;;4971523;28;20565;-72
2023/12/31 10:02:32;;;;;;;1.20;1.10;;;19.70;45.50;;;;;;4976707;28;20518;-72
2023/12/31 10:04:58;;;;;;;1.30;1.20;;;19.70;45.50;;;;;;4986350;28;20430;-73
2023/12/31 10:07:24;;;;;;;1.30;1.20;;;19.70;45.50;;;;;;4984548;28;20235;-72
2023/12/31 10:09:51;;;;;;;5.30;1.30;;;19.70;45.60;;;;;;4974012;28;20692;-74
2023/12/31 10:12:17;;;;;;;1.10;1.00;;;19.70;45.50;;;;;;4972141;28;20858;-72
2023/12/31 10:14:42;;;;;;;1.90;1.10;;;19.70;45.50;;;;;;4972045;28;20439;-73
2023/12/31 10:17:09;;;;;;;1.30;1.20;;;19.70;45.50;;;;;;4977181;28;20228;-73
2023/12/31 10:19:34;;;;;;;2.00;1.03;;;19.70;45.50;;;;;;4984525;28;20229;-73
2023/12/31 10:22:00;;;;;;;1.40;1.30;;;19.70;45.50;;;;;;4969393;28;20451;-72
2023/12/31 10:24:29;;;;;;;3.60;1.20;;;19.70;45.50;;;;;;4982342;28;20357;-73
2023/12/31 10:26:56;;;;;;;1.23;1.13;;;19.70;45.60;;;;;;4976188;28;20764;-72
2023/12/31 10:29:21;;;;;;;1.20;1.10;;;19.70;45.60;;;;;;4976523;28;20466;-72
2023/12/31 10:31:48;;;;;;;1.17;1.07;;;19.70;45.60;;;;;;4980844;28;20511;-73
2023/12/31 10:34:15;;;;;;;2.00;1.10;;;19.70;45.60;;;;;;4981584;28;20398;-73
2023/12/31 10:36:41;;;;;;;1.77;1.10;;;19.70;45.60;;;;;;4977378;28;20435;-74
2023/12/31 10:39:08;;;;;;;1.30;1.20;;;19.70;45.60;;;;;;4972930;28;20462;-73
2023/12/31 10:41:36;;;;;;;1.17;1.07;;;19.70;45.60;;;;;;4978396;28;20227;-73
2023/12/31 10:44:08;;;;;;;1.60;1.30;;;19.70;45.60;;;;;;4992595;28;20461;-73
2023/12/31 10:46:36;;;;;;;2.03;1.03;;;19.70;45.60;;;;;;4978854;28;20476;-72
2023/12/31 10:49:03;;;;;;;1.40;1.30;;;19.70;45.60;;;;;;4988909;28;20439;-72
2023/12/31 10:51:31;;;;;;;1.20;1.10;;;19.70;45.60;;;;;;4990536;28;20484;-72
2023/12/31 10:54:01;;;;;;;1.73;1.20;;;19.70;45.60;;;;;;4978970;28;20454;-71
2023/12/31 10:56:27;;;;;;;1.47;1.10;;;19.70;45.60;;;;;;4995420;28;20446;-72
2023/12/31 10:58:54;;;;;;;1.40;1.30;;;19.60;45.50;;;;;;4995626;28;20440;-73
2023/12/31 11:01:25;;;;;;;1.23;0.90;;;19.70;45.60;;;;;;4971867;28;20224;-72
2023/12/31 11:03:52;;;;;;;1.77;1.00;;;19.60;45.50;;;;;;4984912;28;20454;-72
2023/12/31 11:06:19;;;;;;;1.10;1.00;;;19.60;45.50;;;;;;4991839;28;20453;-71
2023/12/31 11:08:46;;;;;;;1.83;1.20;;;19.70;45.60;;;;;;4990994;28;20945;-71
2023/12/31 11:11:14;;;;;;;1.10;0.90;;;19.70;45.60;;;;;;4984799;28;20421;-72
2023/12/31 11:13:44;;;;;;;1.50;1.10;;;19.70;45.50;;;;;;4984133;28;20458;-71
2023/12/31 11:16:27;;;;;;;1.13;1.00;;;19.70;45.50;;;;;;4989933;28;20476;-71
2023/12/31 11:19:34;;;;;;;1.20;1.10;;;19.60;45.50;;;;;;4971264;28;21050;-74
2023/12/31 11:22:38;;;;;;;0.90;0.90;;;19.70;45.50;;;;;;4984355;28;20436;-73
2023/12/31 11:25:06;;;;;;;1.00;0.90;;;19.60;45.50;;;;;;4992495;28;20464;-73
2023/12/31 11:27:32;;;;;;;1.90;0.97;;;19.70;45.60;;;;;;4991796;28;20788;-74
2023/12/31 11:29:58;;;;;;;1.00;0.90;;;19.60;45.50;;;;;;4984533;28;20959;-73
2023/12/31 11:32:25;;;;;;;1.10;1.00;;;19.60;45.40;;;;;;4976499;28;20444;-73
2023/12/31 11:34:52;;;;;;;2.87;1.00;;;19.60;46.10;;;;;;4966998;28;20587;-74
2023/12/31 11:37:18;;;;;;;1.13;1.00;;;19.60;45.40;;;;;;4966900;28;20436;-74
2023/12/31 11:39:47;;;;;;;2.80;0.90;;;19.60;45.30;;;;;;4991046;28;21960;-73
2023/12/31 11:42:13;;;;;;;1.10;1.00;;;19.60;45.30;;;;;;4973768;28;20219;-73
2023/12/31 11:44:43;;;;;;;1.00;0.90;;;19.60;45.30;;;;;;4981549;28;20982;-74
2023/12/31 11:47:21;;;;;;;1.00;0.87;;;19.60;45.30;;;;;;4981317;28;20481;-74
2023/12/31 11:49:50;;;;;;;1.17;0.80;;;19.60;45.30;;;;;;4989032;28;20520;-73
2023/12/31 11:52:19;;;;;;;1.10;1.00;;;19.60;45.30;;;;;;4972513;28;20428;-83
2023/12/31 11:54:45;;;;;;;0.93;0.83;;;19.60;45.30;;;;;;4973923;28;20538;-79
2023/12/31 11:57:13;;;;;;;1.03;0.90;;;19.70;45.40;;;;;;4986795;28;20445;-85
2023/12/31 11:59:43;;;;;;;0.90;0.90;;;19.60;45.30;;;;;;4978333;28;20282;-84
2023/12/31 12:02:09;;;;;;;1.10;1.00;;;19.60;45.30;;;;;;4991780;28;20439;-83
2023/12/31 12:04:37;;;;;;;1.67;0.90;;;19.60;45.30;;;;;;4986736;28;20497;-83
2023/12/31 12:07:04;;;;;;;0.80;0.80;;;19.60;45.40;;;;;;4991015;28;20235;-84
2023/12/31 12:09:31;;;;;;;0.70;0.70;;;19.60;45.30;;;;;;4976845;28;20468;-81
2023/12/31 12:12:01;;;;;;;2.63;0.90;;;19.60;45.30;;;;;;4982277;28;20972;-79
2023/12/31 12:14:27;;;;;;;0.70;0.70;;;19.60;45.30;;;;;;4981808;28;20471;-82
2023/12/31 12:16:54;;;;;;;0.80;0.73;;;19.60;45.30;;;;;;4995911;28;20786;-74
2023/12/31 12:19:23;;;;;;;1.00;0.90;;;19.60;45.30;;;;;;4992727;28;20857;-82
2023/12/31 12:21:49;;;;;;;0.80;0.80;;;19.60;45.30;;;;;;5001099;28;20427;-78
2023/12/31 12:24:17;;;;;;;1.53;0.80;;;19.60;45.30;;;;;;4992424;28;20427;-82
2023/12/31 12:26:44;;;;;;;0.80;0.70;;;19.60;45.30;;;;;;4982904;28;20427;-82
2023/12/31 12:29:10;;;;;;;0.83;0.83;;;19.60;45.30;;;;;;4986841;28;20459;-82
2023/12/31 12:31:36;;;;;;;1.23;0.70;;;19.60;45.30;;;;;;4993498;28;20458;-82
2023/12/31 12:34:06;;;;;;;0.77;0.60;;;19.60;45.20;;;;;;4985262;28;20320;-82
2023/12/31 12:36:32;;;;;;;1.30;0.90;;;19.60;45.30;;;;;;4977657;28;20489;-78
2023/12/31 12:39:05;;;;;;;0.70;0.70;;;19.60;45.30;;;;;;4966083;28;20440;-74
2023/12/31 12:41:34;;;;;;;0.83;0.83;;;19.60;45.30;;;;;;4978556;28;20732;-81
2023/12/31 12:44:00;;;;;;;0.80;0.80;;;19.60;45.30;;;;;;4982174;28;20478;-80